createdAt,value
2019-02-10T00:00:22.463Z,7.00
2019-02-10T00:01:01.408Z,7.00
2019-02-10T00:01:53.839Z,7.00
2019-02-10T00:02:31.455Z,7.00
2019-02-10T00:03:08.617Z,7.00
2019-02-10T00:03:46.227Z,7.00
2019-02-10T00:04:24.518Z,7.00
2019-02-10T00:05:01.280Z,7.00
2019-02-10T00:05:38.994Z,7.00
2019-02-10T00:06:24.282Z,7.00
2019-02-10T00:06:54.960Z,7.00
2019-02-10T00:07:31.921Z,7.00
2019-02-10T00:08:08.640Z,7.00
2019-02-10T00:08:46.753Z,7.00
2019-02-10T00:09:24.342Z,7.00
2019-02-10T00:10:01.385Z,7.00
2019-02-10T00:10:37.529Z,7.00
2019-02-10T00:11:13.804Z,7.00
2019-02-10T00:11:51.703Z,7.10
2019-02-10T00:12:27.716Z,7.00
2019-02-10T00:13:30.018Z,7.10
2019-02-10T00:14:06.246Z,7.10
2019-02-10T00:14:42.271Z,7.10
2019-02-10T00:15:20.131Z,7.10
2019-02-10T00:15:56.361Z,7.10
2019-02-10T00:16:32.673Z,7.10
2019-02-10T00:17:11.393Z,7.00
2019-02-10T00:17:43.935Z,7.00
2019-02-10T00:18:21.686Z,7.00
2019-02-10T00:18:59.608Z,7.00
2019-02-10T00:19:36.545Z,7.00
2019-02-10T00:20:15.000Z,7.00
2019-02-10T00:20:52.070Z,7.00
2019-02-10T00:21:29.034Z,7.00
2019-02-10T00:22:08.984Z,7.00
2019-02-10T00:22:45.847Z,7.00
2019-02-10T00:23:23.286Z,7.00
2019-02-10T00:24:00.385Z,7.00
2019-02-10T00:24:36.420Z,7.00
2019-02-10T00:25:13.376Z,7.00
2019-02-10T00:25:50.343Z,7.00
2019-02-10T00:26:27.878Z,7.00
2019-02-10T00:27:04.420Z,7.00
2019-02-10T00:27:40.656Z,7.00
2019-02-10T00:28:18.640Z,7.00
2019-02-10T00:28:56.524Z,7.00
2019-02-10T00:29:32.860Z,7.00
2019-02-10T00:30:11.272Z,7.00
2019-02-10T00:30:49.159Z,7.00
2019-02-10T00:31:27.358Z,7.00
2019-02-10T00:32:04.205Z,7.00
2019-02-10T00:32:41.137Z,7.00
2019-02-10T00:33:19.046Z,7.00
2019-02-10T00:33:56.370Z,7.00
2019-02-10T00:34:35.410Z,7.00
2019-02-10T00:35:12.329Z,7.00
2019-02-10T00:35:50.693Z,7.00
2019-02-10T00:36:33.250Z,7.00
2019-02-10T00:37:09.943Z,7.00
2019-02-10T00:37:47.978Z,7.00
2019-02-10T00:38:24.263Z,7.00
2019-02-10T00:39:01.567Z,7.00
2019-02-10T00:39:37.792Z,7.00
2019-02-10T00:40:14.818Z,7.00
2019-02-10T00:40:51.794Z,7.00
2019-02-10T00:41:30.428Z,7.00
2019-02-10T00:42:08.132Z,7.00
2019-02-10T00:42:45.024Z,6.90
2019-02-10T00:43:23.602Z,6.90
2019-02-10T00:43:59.858Z,6.90
2019-02-10T00:44:37.059Z,6.90
2019-02-10T00:45:13.146Z,6.90
2019-02-10T00:45:51.406Z,6.90
2019-02-10T00:46:24.255Z,6.90
2019-02-10T00:47:03.799Z,6.90
2019-02-10T00:47:41.668Z,6.90
2019-02-10T00:48:19.650Z,6.90
2019-02-10T00:48:57.850Z,6.90
2019-02-10T00:49:34.052Z,6.90
2019-02-10T00:50:10.992Z,6.90
2019-02-10T00:50:48.246Z,6.90
2019-02-10T00:51:26.154Z,6.90
2019-02-10T00:52:02.137Z,6.90
2019-02-10T00:52:40.906Z,6.90
2019-02-10T00:53:18.544Z,6.80
2019-02-10T00:53:56.547Z,6.80
2019-02-10T00:54:34.418Z,6.80
2019-02-10T00:55:12.980Z,6.70
2019-02-10T00:55:50.199Z,6.80
2019-02-10T00:56:27.750Z,6.80
2019-02-10T00:57:04.539Z,6.80
2019-02-10T00:57:41.733Z,6.80
2019-02-10T00:58:19.323Z,6.80
2019-02-10T00:58:55.456Z,6.80
2019-02-10T00:59:34.099Z,6.70
2019-02-10T01:00:12.192Z,6.70
2019-02-10T01:00:50.010Z,6.70
2019-02-10T01:01:26.168Z,6.70
2019-02-10T01:02:03.701Z,6.70
2019-02-10T01:02:40.572Z,6.70
2019-02-10T01:03:19.560Z,6.70
2019-02-10T01:03:57.532Z,6.70
2019-02-10T01:04:35.498Z,6.70
2019-02-10T01:05:12.541Z,6.70
2019-02-10T01:05:49.715Z,6.80
2019-02-10T01:06:26.153Z,6.80
2019-02-10T01:07:02.473Z,6.80
2019-02-10T01:07:40.287Z,6.80
2019-02-10T01:08:17.728Z,6.80
2019-02-10T01:08:56.370Z,6.80
2019-02-10T01:09:33.475Z,6.80
2019-02-10T01:10:10.631Z,6.90
2019-02-10T01:10:48.288Z,6.90
2019-02-10T01:11:25.214Z,6.90
2019-02-10T01:12:03.273Z,6.90
2019-02-10T01:12:41.132Z,6.90
2019-02-10T01:13:18.414Z,6.90
2019-02-10T01:13:55.375Z,6.90
2019-02-10T01:14:33.367Z,6.90
2019-02-10T01:15:05.976Z,6.90
2019-02-10T01:15:43.925Z,6.90
2019-02-10T01:16:21.466Z,6.90
2019-02-10T01:16:59.360Z,6.90
2019-02-10T01:17:36.529Z,6.90
2019-02-10T01:18:15.326Z,6.90
2019-02-10T01:19:10.710Z,6.90
2019-02-10T01:19:48.540Z,6.90
2019-02-10T01:20:24.870Z,6.80
2019-02-10T01:21:02.593Z,6.80
2019-02-10T01:21:40.271Z,6.90
2019-02-10T01:22:16.518Z,6.90
2019-02-10T01:22:49.861Z,6.90
2019-02-10T01:23:27.900Z,6.90
2019-02-10T01:24:06.667Z,6.90
2019-02-10T01:24:44.977Z,6.90
2019-02-10T01:25:21.197Z,6.90
2019-02-10T01:25:58.015Z,6.90
2019-02-10T01:26:34.884Z,6.90
2019-02-10T01:27:11.961Z,6.80
2019-02-10T01:27:49.740Z,6.80
2019-02-10T01:28:28.855Z,6.80
2019-02-10T01:29:05.676Z,6.80
2019-02-10T01:29:43.323Z,6.80
2019-02-10T01:30:53.337Z,6.80
2019-02-10T01:31:29.960Z,6.70
2019-02-10T01:32:07.474Z,6.80
2019-02-10T01:32:45.445Z,6.80
2019-02-10T01:33:23.603Z,6.80
2019-02-10T01:34:00.418Z,6.80
2019-02-10T01:34:37.746Z,6.70
2019-02-10T01:35:15.507Z,6.80
2019-02-10T01:35:54.393Z,6.70
2019-02-10T01:36:32.130Z,6.70
2019-02-10T01:37:10.429Z,6.70
2019-02-10T01:37:47.642Z,6.70
2019-02-10T01:38:25.949Z,6.70
2019-02-10T01:39:05.149Z,6.70
2019-02-10T01:39:42.623Z,6.70
2019-02-10T01:40:19.203Z,6.70
2019-02-10T01:40:57.755Z,6.60
2019-02-10T01:41:34.968Z,6.70
2019-02-10T01:42:13.154Z,6.70
2019-02-10T01:42:51.682Z,6.60
2019-02-10T01:43:28.943Z,6.60
2019-02-10T01:44:06.422Z,6.60
2019-02-10T01:44:44.316Z,6.60
2019-02-10T01:45:21.144Z,6.70
2019-02-10T01:45:57.191Z,6.60
2019-02-10T01:46:34.438Z,6.60
2019-02-10T01:47:11.772Z,6.60
2019-02-10T01:47:51.285Z,6.60
2019-02-10T01:48:29.720Z,6.60
2019-02-10T01:49:06.292Z,6.60
2019-02-10T01:49:45.133Z,6.60
2019-02-10T01:50:22.780Z,6.60
2019-02-10T01:51:00.241Z,6.60
2019-02-10T01:51:32.775Z,6.60
2019-02-10T01:52:10.058Z,6.60
2019-02-10T01:52:48.112Z,6.60
2019-02-10T01:53:27.423Z,6.60
2019-02-10T01:54:04.588Z,6.60
2019-02-10T01:54:42.495Z,6.60
2019-02-10T01:55:19.500Z,6.60
2019-02-10T01:55:56.960Z,6.60
2019-02-10T01:56:34.212Z,6.60
2019-02-10T01:57:09.549Z,6.70
2019-02-10T01:57:48.350Z,6.70
2019-02-10T01:58:25.602Z,6.70
2019-02-10T01:59:02.737Z,6.70
2019-02-10T01:59:39.982Z,6.60
2019-02-10T02:00:17.321Z,6.60
2019-02-10T02:00:56.145Z,6.60
2019-02-10T02:01:35.344Z,6.60
2019-02-10T02:02:14.287Z,6.60
2019-02-10T02:02:52.707Z,6.60
2019-02-10T02:03:29.962Z,6.50
2019-02-10T02:04:07.851Z,6.50
2019-02-10T02:04:46.194Z,6.50
2019-02-10T02:05:23.315Z,6.50
2019-02-10T02:06:02.780Z,6.50
2019-02-10T02:06:40.047Z,6.50
2019-02-10T02:07:17.244Z,6.50
2019-02-10T02:07:54.496Z,6.40
2019-02-10T02:08:31.662Z,6.40
2019-02-10T02:09:11.476Z,6.40
2019-02-10T02:09:48.932Z,6.40
2019-02-10T02:10:26.096Z,6.40
2019-02-10T02:11:04.443Z,6.50
2019-02-10T02:11:41.847Z,6.50
2019-02-10T02:12:19.133Z,6.40
2019-02-10T02:12:57.971Z,6.50
2019-02-10T02:13:36.451Z,6.50
2019-02-10T02:14:13.746Z,6.40
2019-02-10T02:14:50.924Z,6.40
2019-02-10T02:15:27.262Z,6.40
2019-02-10T02:16:05.356Z,6.40
2019-02-10T02:16:44.054Z,6.40
2019-02-10T02:17:21.182Z,6.40
2019-02-10T02:18:00.363Z,6.40
2019-02-10T02:18:38.240Z,6.40
2019-02-10T02:19:14.653Z,6.40
2019-02-10T02:19:51.964Z,6.40
2019-02-10T02:20:28.777Z,6.40
2019-02-10T02:21:06.999Z,6.40
2019-02-10T02:21:44.414Z,6.40
2019-02-10T02:22:21.780Z,6.50
2019-02-10T02:22:58.160Z,6.50
2019-02-10T02:23:36.795Z,6.40
2019-02-10T02:24:14.107Z,6.40
2019-02-10T02:24:46.655Z,6.40
2019-02-10T02:25:24.798Z,6.40
2019-02-10T02:26:02.948Z,6.40
2019-02-10T02:26:40.233Z,6.40
2019-02-10T02:27:17.359Z,6.40
2019-02-10T02:27:54.513Z,6.40
2019-02-10T02:28:32.931Z,6.40
2019-02-10T02:29:10.771Z,6.40
2019-02-10T02:29:48.710Z,6.40
2019-02-10T02:30:25.893Z,6.30
2019-02-10T02:31:03.013Z,6.40
2019-02-10T02:31:40.896Z,6.40
2019-02-10T02:32:19.831Z,6.40
2019-02-10T02:32:57.077Z,6.40
2019-02-10T02:33:34.033Z,6.40
2019-02-10T02:34:12.755Z,6.40
2019-02-10T02:34:50.147Z,6.40
2019-02-10T02:35:29.919Z,6.40
2019-02-10T02:36:04.378Z,6.40
2019-02-10T02:36:45.540Z,6.30
2019-02-10T02:37:23.010Z,6.40
2019-02-10T02:38:00.138Z,6.30
2019-02-10T02:38:38.178Z,6.30
2019-02-10T02:39:15.790Z,6.30
2019-02-10T02:39:53.191Z,6.30
2019-02-10T02:40:31.231Z,6.30
2019-02-10T02:41:08.784Z,6.30
2019-02-10T02:41:47.644Z,6.30
2019-02-10T02:42:26.335Z,6.30
2019-02-10T02:43:03.539Z,6.30
2019-02-10T02:43:40.723Z,6.30
2019-02-10T02:44:17.086Z,6.30
2019-02-10T02:44:54.447Z,6.30
2019-02-10T02:45:31.530Z,6.30
2019-02-10T02:46:08.649Z,6.30
2019-02-10T02:46:46.556Z,6.30
2019-02-10T02:47:24.523Z,6.30
2019-02-10T02:48:01.792Z,6.30
2019-02-10T02:48:39.434Z,6.30
2019-02-10T02:49:19.102Z,6.30
2019-02-10T02:49:57.738Z,6.30
2019-02-10T02:50:35.660Z,6.30
2019-02-10T02:51:13.955Z,6.20
2019-02-10T02:51:51.346Z,6.30
2019-02-10T02:52:28.814Z,6.30
2019-02-10T02:53:07.693Z,6.30
2019-02-10T02:53:45.026Z,6.30
2019-02-10T02:54:24.505Z,6.30
2019-02-10T02:55:02.973Z,6.20
2019-02-10T02:55:40.558Z,6.30
2019-02-10T02:56:17.315Z,6.30
2019-02-10T02:56:54.485Z,6.30
2019-02-10T02:57:32.612Z,6.30
2019-02-10T02:58:09.729Z,6.30
2019-02-10T02:58:46.623Z,6.30
2019-02-10T02:59:25.022Z,6.20
2019-02-10T03:00:02.734Z,6.30
2019-02-10T03:00:41.621Z,6.20
2019-02-10T03:01:20.069Z,6.30
2019-02-10T03:01:58.196Z,6.20
2019-02-10T03:02:35.487Z,6.20
2019-02-10T03:03:12.091Z,6.20
2019-02-10T03:03:51.772Z,6.20
2019-02-10T03:04:29.732Z,6.20
2019-02-10T03:05:06.212Z,6.20
2019-02-10T03:05:43.536Z,6.20
2019-02-10T03:06:19.797Z,6.20
2019-02-10T03:06:57.155Z,6.20
2019-02-10T03:07:35.064Z,6.20
2019-02-10T03:08:12.958Z,6.20
2019-02-10T03:08:53.244Z,6.20
2019-02-10T03:09:30.317Z,6.20
2019-02-10T03:10:08.831Z,6.20
2019-02-10T03:10:41.808Z,6.20
2019-02-10T03:11:18.865Z,6.20
2019-02-10T03:11:55.772Z,6.10
2019-02-10T03:12:32.657Z,6.10
2019-02-10T03:13:10.547Z,6.10
2019-02-10T03:13:49.053Z,6.10
2019-02-10T03:14:26.341Z,6.10
2019-02-10T03:15:05.501Z,6.10
2019-02-10T03:15:44.327Z,6.10
2019-02-10T03:16:23.932Z,6.10
2019-02-10T03:17:03.280Z,6.10
2019-02-10T03:17:40.573Z,6.10
2019-02-10T03:18:18.786Z,6.10
2019-02-10T03:18:57.537Z,6.10
2019-02-10T03:19:34.963Z,6.00
2019-02-10T03:20:12.192Z,6.00
2019-02-10T03:20:50.209Z,6.00
2019-02-10T03:21:27.812Z,6.00
2019-02-10T03:22:06.027Z,6.00
2019-02-10T03:22:44.190Z,6.00
2019-02-10T03:23:22.230Z,6.00
2019-02-10T03:24:01.309Z,6.00
2019-02-10T03:24:40.643Z,6.00
2019-02-10T03:25:19.665Z,6.00
2019-02-10T03:25:57.239Z,6.00
2019-02-10T03:26:33.685Z,6.00
2019-02-10T03:27:11.683Z,6.00
2019-02-10T03:27:50.391Z,6.00
2019-02-10T03:28:28.487Z,5.90
2019-02-10T03:29:06.854Z,5.90
2019-02-10T03:29:45.542Z,5.90
2019-02-10T03:30:24.297Z,5.90
2019-02-10T03:31:01.667Z,5.90
2019-02-10T03:31:39.467Z,5.90
2019-02-10T03:32:16.123Z,5.90
2019-02-10T03:32:54.243Z,5.90
2019-02-10T03:33:31.607Z,5.90
2019-02-10T03:34:08.901Z,5.90
2019-02-10T03:34:45.223Z,5.90
2019-02-10T03:35:23.957Z,5.90
2019-02-10T03:36:01.720Z,5.90
2019-02-10T03:36:39.581Z,5.90
2019-02-10T03:37:16.847Z,5.90
2019-02-10T03:37:55.775Z,5.90
2019-02-10T03:38:33.143Z,5.90
2019-02-10T03:39:10.792Z,5.80
2019-02-10T03:39:49.557Z,5.80
2019-02-10T03:40:28.087Z,5.80
2019-02-10T03:41:06.355Z,5.80
2019-02-10T03:41:43.615Z,5.80
2019-02-10T03:42:21.979Z,5.80
2019-02-10T03:43:01.450Z,5.80
2019-02-10T03:43:39.392Z,5.80
2019-02-10T03:44:15.724Z,5.80
2019-02-10T03:44:53.635Z,5.80
2019-02-10T03:45:30.082Z,5.80
2019-02-10T03:46:09.912Z,5.70
2019-02-10T03:46:48.989Z,5.80
2019-02-10T03:47:26.495Z,5.80
2019-02-10T03:48:03.672Z,5.80
2019-02-10T03:48:41.594Z,5.80
2019-02-10T03:49:22.175Z,5.80
2019-02-10T03:49:54.735Z,5.80
2019-02-10T03:50:32.386Z,5.70
2019-02-10T03:51:09.524Z,5.70
2019-02-10T03:51:47.862Z,5.70
2019-02-10T03:52:27.456Z,5.80
2019-02-10T03:53:04.916Z,5.70
2019-02-10T03:53:43.508Z,5.70
2019-02-10T03:54:21.528Z,5.70
2019-02-10T03:54:58.371Z,5.70
2019-02-10T03:55:31.850Z,5.70
2019-02-10T03:56:08.955Z,5.70
2019-02-10T03:56:47.533Z,5.70
2019-02-10T03:57:24.170Z,5.70
2019-02-10T03:58:01.467Z,5.70
2019-02-10T03:58:39.356Z,5.70
2019-02-10T03:59:16.453Z,5.70
2019-02-10T03:59:54.431Z,5.70
2019-02-10T04:00:31.233Z,5.70
2019-02-10T04:01:09.531Z,5.60
2019-02-10T04:01:47.102Z,5.60
2019-02-10T04:02:25.239Z,5.60
2019-02-10T04:03:01.801Z,5.60
2019-02-10T04:03:39.089Z,5.70
2019-02-10T04:04:18.180Z,5.70
2019-02-10T04:04:56.978Z,5.60
2019-02-10T04:05:34.438Z,5.60
2019-02-10T04:06:13.000Z,5.60
2019-02-10T04:06:51.308Z,5.60
2019-02-10T04:07:35.846Z,5.50
2019-02-10T04:08:09.454Z,5.60
2019-02-10T04:08:48.225Z,5.50
2019-02-10T04:09:26.817Z,5.50
2019-02-10T04:10:05.870Z,5.50
2019-02-10T04:10:44.387Z,5.60
2019-02-10T04:11:23.993Z,5.60
2019-02-10T04:12:01.135Z,5.60
2019-02-10T04:12:38.682Z,5.60
2019-02-10T04:13:15.544Z,5.60
2019-02-10T04:13:52.878Z,5.60
2019-02-10T04:14:29.477Z,5.60
2019-02-10T04:15:07.486Z,5.60
2019-02-10T04:15:46.955Z,5.60
2019-02-10T04:16:23.556Z,5.60
2019-02-10T04:17:01.631Z,5.60
2019-02-10T04:17:39.929Z,5.60
2019-02-10T04:18:19.306Z,5.60
2019-02-10T04:18:56.394Z,5.60
2019-02-10T04:19:33.697Z,5.60
2019-02-10T04:20:12.056Z,5.60
2019-02-10T04:20:50.200Z,5.60
2019-02-10T04:21:29.244Z,5.60
2019-02-10T04:22:08.758Z,5.60
2019-02-10T04:22:45.876Z,5.60
2019-02-10T04:23:22.904Z,5.60
2019-02-10T04:24:00.046Z,5.60
2019-02-10T04:24:38.299Z,5.60
2019-02-10T04:25:15.139Z,5.60
2019-02-10T04:25:51.635Z,5.60
2019-02-10T04:26:30.685Z,5.60
2019-02-10T04:27:07.990Z,5.50
2019-02-10T04:27:46.216Z,5.50
2019-02-10T04:28:22.894Z,5.50
2019-02-10T04:29:00.241Z,5.50
2019-02-10T04:29:38.482Z,5.50
2019-02-10T04:30:16.480Z,5.50
2019-02-10T04:30:55.644Z,5.40
2019-02-10T04:31:34.488Z,5.40
2019-02-10T04:32:11.868Z,5.50
2019-02-10T04:32:50.836Z,5.50
2019-02-10T04:33:29.827Z,5.40
2019-02-10T04:34:08.244Z,5.40
2019-02-10T04:34:47.188Z,5.50
2019-02-10T04:35:25.037Z,5.40
2019-02-10T04:36:02.512Z,5.50
2019-02-10T04:36:39.793Z,5.40
2019-02-10T04:37:18.547Z,5.40
2019-02-10T04:37:56.855Z,5.50
2019-02-10T04:38:34.770Z,5.50
2019-02-10T04:39:13.536Z,5.50
2019-02-10T04:39:51.585Z,5.50
2019-02-10T04:40:29.104Z,5.50
2019-02-10T04:41:06.257Z,5.50
2019-02-10T04:41:43.673Z,5.50
2019-02-10T04:42:20.747Z,5.50
2019-02-10T04:42:57.532Z,5.50
2019-02-10T04:43:37.963Z,5.50
2019-02-10T04:44:14.404Z,5.60
2019-02-10T04:44:53.659Z,5.50
2019-02-10T04:45:30.180Z,5.50
2019-02-10T04:46:06.787Z,5.50
2019-02-10T04:46:46.306Z,5.50
2019-02-10T04:47:20.122Z,5.50
2019-02-10T04:47:58.924Z,5.50
2019-02-10T04:48:37.203Z,5.50
2019-02-10T04:49:13.716Z,5.50
2019-02-10T04:49:51.956Z,5.50
2019-02-10T04:50:30.112Z,5.50
2019-02-10T04:51:08.120Z,5.50
2019-02-10T04:51:46.264Z,5.50
2019-02-10T04:52:23.702Z,5.50
2019-02-10T04:52:56.258Z,5.50
2019-02-10T04:53:32.871Z,5.50
2019-02-10T04:54:11.229Z,5.50
2019-02-10T04:54:48.517Z,5.50
2019-02-10T04:55:25.834Z,5.50
2019-02-10T04:56:17.080Z,5.50
2019-02-10T04:56:56.316Z,5.50
2019-02-10T04:57:33.567Z,5.50
2019-02-10T04:58:13.187Z,5.50
2019-02-10T04:58:46.086Z,5.50
2019-02-10T04:59:23.923Z,5.50
2019-02-10T05:00:03.898Z,5.50
2019-02-10T05:00:42.587Z,5.50
2019-02-10T05:01:20.277Z,5.60
2019-02-10T05:01:57.782Z,5.60
2019-02-10T05:02:35.421Z,5.60
2019-02-10T05:03:13.693Z,5.60
2019-02-10T05:03:52.857Z,5.60
2019-02-10T05:04:25.772Z,5.60
2019-02-10T05:05:02.813Z,5.50
2019-02-10T05:05:41.179Z,5.50
2019-02-10T05:06:19.090Z,5.50
2019-02-10T05:06:57.776Z,5.50
2019-02-10T05:07:35.615Z,5.50
2019-02-10T05:08:13.378Z,5.50
2019-02-10T05:08:52.113Z,5.50
2019-02-10T05:09:29.973Z,5.50
2019-02-10T05:10:04.806Z,5.50
2019-02-10T05:10:43.996Z,5.50
2019-02-10T05:11:22.368Z,5.50
2019-02-10T05:12:00.641Z,5.60
2019-02-10T05:12:39.769Z,5.60
2019-02-10T05:13:17.323Z,5.60
2019-02-10T05:13:56.737Z,5.60
2019-02-10T05:14:35.075Z,5.60
2019-02-10T05:15:12.975Z,5.60
2019-02-10T05:15:48.454Z,5.60
2019-02-10T05:16:27.330Z,5.60
2019-02-10T05:17:03.978Z,5.60
2019-02-10T05:17:40.643Z,5.50
2019-02-10T05:18:19.929Z,5.50
2019-02-10T05:18:57.362Z,5.50
2019-02-10T05:19:35.898Z,5.50
2019-02-10T05:20:14.815Z,5.50
2019-02-10T05:20:53.032Z,5.50
2019-02-10T05:21:31.498Z,5.50
2019-02-10T05:22:08.119Z,5.50
2019-02-10T05:22:45.558Z,5.50
2019-02-10T05:23:24.514Z,5.50
2019-02-10T05:24:03.443Z,5.50
2019-02-10T05:24:41.334Z,5.50
2019-02-10T05:25:18.674Z,5.50
2019-02-10T05:25:58.300Z,5.50
2019-02-10T05:26:38.411Z,5.50
2019-02-10T05:27:15.522Z,5.50
2019-02-10T05:27:52.727Z,5.50
2019-02-10T05:28:30.906Z,5.50
2019-02-10T05:29:07.463Z,5.50
2019-02-10T05:29:45.668Z,5.50
2019-02-10T05:30:23.735Z,5.50
2019-02-10T05:31:03.600Z,5.50
2019-02-10T05:31:41.818Z,5.50
2019-02-10T05:32:19.767Z,5.50
2019-02-10T05:32:58.123Z,5.50
2019-02-10T05:33:36.819Z,5.50
2019-02-10T05:34:14.168Z,5.50
2019-02-10T05:34:52.207Z,5.50
2019-02-10T05:35:31.071Z,5.40
2019-02-10T05:36:09.440Z,5.40
2019-02-10T05:36:46.642Z,5.40
2019-02-10T05:37:24.020Z,5.40
2019-02-10T05:38:04.539Z,5.50
2019-02-10T05:38:41.697Z,5.50
2019-02-10T05:39:21.533Z,5.40
2019-02-10T05:39:58.736Z,5.40
2019-02-10T05:40:35.948Z,5.40
2019-02-10T05:41:14.454Z,5.40
2019-02-10T05:41:52.662Z,5.40
2019-02-10T05:42:31.416Z,5.40
2019-02-10T05:43:10.111Z,5.40
2019-02-10T05:43:50.171Z,5.40
2019-02-10T05:44:29.681Z,5.40
2019-02-10T05:45:07.881Z,5.40
2019-02-10T05:45:46.401Z,5.40
2019-02-10T05:46:24.834Z,5.40
2019-02-10T05:47:01.720Z,5.40
2019-02-10T05:47:39.181Z,5.40
2019-02-10T05:48:17.596Z,5.40
2019-02-10T05:48:54.076Z,5.40
2019-02-10T05:49:32.056Z,5.40
2019-02-10T05:50:09.683Z,5.40
2019-02-10T05:50:48.379Z,5.50
2019-02-10T05:51:26.440Z,5.50
2019-02-10T05:52:04.788Z,5.50
2019-02-10T05:52:41.923Z,5.50
2019-02-10T05:53:19.030Z,5.50
2019-02-10T05:53:56.213Z,5.50
2019-02-10T05:54:34.163Z,5.50
2019-02-10T05:55:11.515Z,5.50
2019-02-10T05:55:49.470Z,5.40
2019-02-10T05:56:26.052Z,5.50
2019-02-10T05:57:03.738Z,5.50
2019-02-10T05:57:41.365Z,5.40
2019-02-10T05:58:22.268Z,5.50
2019-02-10T05:58:58.714Z,5.40
2019-02-10T05:59:38.015Z,5.50
2019-02-10T06:00:16.478Z,5.50
2019-02-10T06:00:54.839Z,5.50
2019-02-10T06:02:07.200Z,5.50
2019-02-10T06:02:44.829Z,5.50
2019-02-10T06:03:21.702Z,5.40
2019-02-10T06:03:58.211Z,5.40
2019-02-10T06:04:37.663Z,5.50
2019-02-10T06:05:22.103Z,5.40
2019-02-10T06:06:00.673Z,5.40
2019-02-10T06:06:37.849Z,5.40
2019-02-10T06:07:16.772Z,5.40
2019-02-10T06:07:55.261Z,5.40
2019-02-10T06:08:33.202Z,5.40
2019-02-10T06:09:10.799Z,5.40
2019-02-10T06:09:50.287Z,5.40
2019-02-10T06:10:28.560Z,5.50
2019-02-10T06:11:06.679Z,5.40
2019-02-10T06:11:45.015Z,5.40
2019-02-10T06:12:23.389Z,5.50
2019-02-10T06:13:01.203Z,5.40
2019-02-10T06:13:37.808Z,5.40
2019-02-10T06:14:17.119Z,5.40
2019-02-10T06:14:56.329Z,5.40
2019-02-10T06:15:33.470Z,5.40
2019-02-10T06:16:12.163Z,5.40
2019-02-10T06:16:50.043Z,5.40
2019-02-10T06:17:27.835Z,5.40
2019-02-10T06:18:04.611Z,5.40
2019-02-10T06:18:43.074Z,5.50
2019-02-10T06:19:20.306Z,5.50
2019-02-10T06:19:57.747Z,5.50
2019-02-10T06:20:36.468Z,5.50
2019-02-10T06:21:15.684Z,5.50
2019-02-10T06:21:53.810Z,5.50
2019-02-10T06:22:32.865Z,5.50
2019-02-10T06:23:12.297Z,5.50
2019-02-10T06:23:50.108Z,5.50
2019-02-10T06:24:28.777Z,5.50
2019-02-10T06:25:08.002Z,5.50
2019-02-10T06:25:45.113Z,5.50
2019-02-10T06:26:24.728Z,5.50
2019-02-10T06:27:04.205Z,5.50
2019-02-10T06:27:42.846Z,5.50
2019-02-10T06:28:19.234Z,5.50
2019-02-10T06:28:59.008Z,5.50
2019-02-10T06:29:36.362Z,5.50
2019-02-10T06:30:14.421Z,5.50
2019-02-10T06:30:51.731Z,5.60
2019-02-10T06:31:31.678Z,5.60
2019-02-10T06:32:11.185Z,5.50
2019-02-10T06:32:49.490Z,5.60
2019-02-10T06:33:27.462Z,5.50
2019-02-10T06:34:05.236Z,5.50
2019-02-10T06:34:44.339Z,5.50
2019-02-10T06:35:23.030Z,5.50
2019-02-10T06:36:01.245Z,5.50
2019-02-10T06:36:38.054Z,5.50
2019-02-10T06:37:17.371Z,5.50
2019-02-10T06:37:57.267Z,5.50
2019-02-10T06:38:34.621Z,5.50
2019-02-10T06:39:12.077Z,5.50
2019-02-10T06:39:48.730Z,5.50
2019-02-10T06:40:27.384Z,5.50
2019-02-10T06:41:07.384Z,5.50
2019-02-10T06:41:44.644Z,5.50
2019-02-10T06:42:22.698Z,5.50
2019-02-10T06:43:01.236Z,5.50
2019-02-10T06:43:38.786Z,5.40
2019-02-10T06:44:16.304Z,5.40
2019-02-10T06:44:54.728Z,5.50
2019-02-10T06:45:31.478Z,5.40
2019-02-10T06:46:08.640Z,5.40
2019-02-10T06:46:45.059Z,5.50
2019-02-10T06:47:23.016Z,5.50
2019-02-10T06:48:01.865Z,5.50
2019-02-10T06:48:39.014Z,5.50
2019-02-10T06:49:12.213Z,5.50
2019-02-10T06:49:51.283Z,5.50
2019-02-10T06:50:29.046Z,5.50
2019-02-10T06:51:05.778Z,5.60
2019-02-10T06:51:41.142Z,5.60
2019-02-10T06:52:14.039Z,5.60
2019-02-10T06:52:52.030Z,5.70
2019-02-10T06:53:31.127Z,5.60
2019-02-10T06:54:04.716Z,5.60
2019-02-10T06:54:44.618Z,5.60
2019-02-10T06:55:22.515Z,5.60
2019-02-10T06:56:00.570Z,5.60
2019-02-10T06:56:39.074Z,5.60
2019-02-10T06:57:11.830Z,5.60
2019-02-10T06:57:48.828Z,5.60
2019-02-10T06:58:26.993Z,5.60
2019-02-10T06:59:05.473Z,5.60
2019-02-10T06:59:50.346Z,5.60
2019-02-10T07:00:46.840Z,5.60
2019-02-10T07:01:33.613Z,5.60
2019-02-10T07:02:30.976Z,5.70
2019-02-10T07:03:42.367Z,5.70
2019-02-10T07:04:22.965Z,5.70
2019-02-10T07:04:55.876Z,5.70
2019-02-10T07:05:30.467Z,5.70
2019-02-10T07:06:05.821Z,5.70
2019-02-10T07:06:42.257Z,5.70
2019-02-10T07:07:18.547Z,5.70
2019-02-10T07:07:55.424Z,5.70
2019-02-10T07:08:31.496Z,5.70
2019-02-10T07:09:08.810Z,5.70
2019-02-10T07:09:45.886Z,5.70
2019-02-10T07:10:22.400Z,5.70
2019-02-10T07:10:59.039Z,5.70
2019-02-10T07:11:35.810Z,5.70
2019-02-10T07:12:50.144Z,5.80
2019-02-10T07:13:34.835Z,5.80
2019-02-10T07:14:24.966Z,5.80
2019-02-10T07:15:06.927Z,5.80
2019-02-10T07:16:18.674Z,5.80
2019-02-10T07:17:32.959Z,5.80
2019-02-10T07:18:44.162Z,5.80
2019-02-10T07:19:57.685Z,5.90
2019-02-10T07:20:54.770Z,5.90
2019-02-10T07:21:39.802Z,5.90
2019-02-10T07:23:02.992Z,5.90
2019-02-10T07:24:19.444Z,5.90
2019-02-10T07:25:21.667Z,5.90
2019-02-10T07:26:19.658Z,5.90
2019-02-10T07:27:02.248Z,5.90
2019-02-10T07:27:39.483Z,6.00
2019-02-10T07:28:42.457Z,6.00
2019-02-10T07:29:53.229Z,6.00
2019-02-10T07:30:50.152Z,6.00
2019-02-10T07:31:55.160Z,6.00
2019-02-10T07:32:39.931Z,6.00
2019-02-10T07:33:28.759Z,6.00
2019-02-10T07:34:59.429Z,6.00
2019-02-10T07:36:22.608Z,6.00
2019-02-10T07:37:14.328Z,6.10
2019-02-10T07:38:38.668Z,6.10
2019-02-10T07:39:48.501Z,6.10
2019-02-10T07:41:05.098Z,6.20
2019-02-10T07:41:59.491Z,6.10
2019-02-10T07:43:30.452Z,6.10
2019-02-10T07:45:12.156Z,6.20
2019-02-10T07:46:31.216Z,6.20
2019-02-10T07:47:52.799Z,6.20
2019-02-10T07:49:24.288Z,6.20
2019-02-10T07:50:40.051Z,6.20
2019-02-10T07:51:40.873Z,6.20
2019-02-10T07:53:00.667Z,6.20
2019-02-10T07:54:27.165Z,6.30
2019-02-10T07:55:43.828Z,6.20
2019-02-10T07:56:52.189Z,6.30
2019-02-10T07:57:49.033Z,6.30
2019-02-10T07:58:50.419Z,6.30
2019-02-10T08:00:06.787Z,6.20
2019-02-10T08:01:17.811Z,6.20
2019-02-10T08:02:28.377Z,6.20
2019-02-10T08:03:39.442Z,6.20
2019-02-10T08:04:41.726Z,6.20
2019-02-10T08:05:45.866Z,6.20
2019-02-10T08:06:54.162Z,6.20
2019-02-10T08:08:12.453Z,6.20
2019-02-10T08:09:06.218Z,6.20
2019-02-10T08:10:36.371Z,6.30
2019-02-10T08:11:42.151Z,6.40
2019-02-10T08:12:31.015Z,6.30
2019-02-10T08:13:57.605Z,6.30
2019-02-10T08:15:07.431Z,6.30
2019-02-10T08:16:18.602Z,6.20
2019-02-10T08:17:09.370Z,6.20
2019-02-10T08:18:06.592Z,6.20
2019-02-10T08:19:37.824Z,6.30
2019-02-10T08:20:26.215Z,6.20
2019-02-10T08:21:49.505Z,6.20
2019-02-10T08:23:29.519Z,6.20
2019-02-10T08:25:00.973Z,6.20
2019-02-10T08:26:03.983Z,6.20
2019-02-10T08:27:34.993Z,6.20
2019-02-10T08:28:48.380Z,6.20
2019-02-10T08:29:56.961Z,6.30
2019-02-10T08:31:07.552Z,6.30
2019-02-10T08:32:10.090Z,6.30
2019-02-10T08:33:33.231Z,6.30
2019-02-10T08:34:28.654Z,6.40
2019-02-10T08:35:47.320Z,6.40
2019-02-10T08:36:46.426Z,6.30
2019-02-10T08:37:53.525Z,6.40
2019-02-10T08:39:15.445Z,6.40
2019-02-10T08:40:18.990Z,6.40
2019-02-10T08:41:25.315Z,6.50
2019-02-10T08:42:26.442Z,6.50
2019-02-10T08:43:46.886Z,6.50
2019-02-10T08:44:50.775Z,6.50
2019-02-10T08:45:57.042Z,6.50
2019-02-10T08:46:54.929Z,6.50
2019-02-10T08:47:55.047Z,6.40
2019-02-10T08:48:54.956Z,6.50
2019-02-10T08:50:06.644Z,6.50
2019-02-10T08:51:21.334Z,6.50
2019-02-10T08:52:18.279Z,6.50
2019-02-10T08:53:03.718Z,6.50
2019-02-10T08:53:39.740Z,6.50
2019-02-10T08:54:12.748Z,6.60
2019-02-10T08:54:45.486Z,6.60
2019-02-10T08:55:19.137Z,6.60
2019-02-10T08:55:52.570Z,6.60
2019-02-10T08:56:25.392Z,6.60
2019-02-10T08:56:58.431Z,6.60
2019-02-10T08:57:31.335Z,6.60
2019-02-10T08:58:04.637Z,6.60
2019-02-10T08:58:37.490Z,6.60
2019-02-10T08:59:11.074Z,6.60
2019-02-10T08:59:53.433Z,6.70
2019-02-10T09:00:38.443Z,6.60
2019-02-10T09:01:25.314Z,6.70
2019-02-10T09:02:07.089Z,6.70
2019-02-10T09:02:40.176Z,6.70
2019-02-10T09:03:19.415Z,6.70
2019-02-10T09:03:48.524Z,6.70
2019-02-10T09:04:20.994Z,6.70
2019-02-10T09:04:53.471Z,6.70
2019-02-10T09:05:25.948Z,6.70
2019-02-10T09:05:58.454Z,6.70
2019-02-10T09:06:31.237Z,6.80
2019-02-10T09:07:04.006Z,6.80
2019-02-10T09:07:36.787Z,6.80
2019-02-10T09:08:09.282Z,6.80
2019-02-10T09:08:42.025Z,6.80
2019-02-10T09:09:14.889Z,6.80
2019-02-10T09:09:47.362Z,6.80